Time;durP1;ratioP1;P1;durP2;ratioP2;P2;SDS_P1;SDS_P2;PMS_P1;PMS_P2;Temp;Humidity;BMP_temperature;BMP_pressure;BME280_temperature;BME280_humidity;BME280_pressure;Samples;Min_cycle;Max_cycle;Signal;HPM_P1;HPM_P2
2022/06/11 00:00:29;;;;;;;6.50;2.90;;;;;;;17.36;52.41;101552.59;7395637;19;20032;-68
2022/06/11 00:03:00;;;;;;;4.63;3.33;;;;;;;17.32;52.51;101546.53;7395722;19;20035;-68
2022/06/11 00:05:29;;;;;;;7.03;3.20;;;;;;;17.28;52.89;101552.91;7397635;19;20022;-68
2022/06/11 00:07:57;;;;;;;6.10;3.10;;;;;;;17.21;52.77;101544.31;7395242;19;20026;-68
2022/06/11 00:10:27;;;;;;;7.78;3.50;;;;;;;17.16;52.68;101545.38;7396412;19;20430;-68
2022/06/11 00:12:55;;;;;;;4.85;3.05;;;;;;;17.09;52.90;101550.06;7394997;19;20023;-69
2022/06/11 00:15:24;;;;;;;7.05;4.10;;;;;;;17.05;53.37;101551.09;7396790;19;20014;-68
2022/06/11 00:17:56;;;;;;;11.65;4.78;;;;;;;16.99;53.68;101552.16;7393836;19;20019;-68
2022/06/11 00:20:29;;;;;;;7.75;4.60;;;;;;;16.92;53.83;101548.00;7396213;19;20018;-68
2022/06/11 00:22:57;;;;;;;8.65;3.95;;;;;;;16.86;53.55;101553.50;7395172;19;20035;-68
2022/06/11 00:25:27;;;;;;;7.70;4.07;;;;;;;16.81;54.09;101555.44;7397003;19;20407;-68
2022/06/11 00:27:56;;;;;;;8.50;4.15;;;;;;;16.74;54.05;101555.66;7396544;19;20035;-68
2022/06/11 00:30:24;;;;;;;7.15;3.85;;;;;;;16.70;54.39;101548.72;7394850;19;20022;-68
2022/06/11 00:32:55;;;;;;;7.85;4.85;;;;;;;16.65;54.43;101547.16;7394741;19;20086;-68
2022/06/11 00:35:27;;;;;;;8.25;4.20;;;;;;;16.59;54.72;101546.47;7393715;19;20073;-68
2022/06/11 00:37:56;;;;;;;9.65;4.75;;;;;;;16.54;54.93;101560.75;7395049;19;20022;-68
2022/06/11 00:40:28;;;;;;;6.22;3.97;;;;;;;16.45;54.91;101549.56;7394186;19;20015;-68
2022/06/11 00:42:57;;;;;;;7.38;4.10;;;;;;;16.36;54.95;101549.88;7393256;19;20015;-68
2022/06/11 00:45:31;;;;;;;8.23;4.35;;;;;;;16.31;55.06;101541.22;7394506;19;20379;-68
2022/06/11 00:48:03;;;;;;;12.32;5.00;;;;;;;16.27;55.53;101547.53;7394838;19;20015;-68
2022/06/11 00:50:39;;;;;;;8.73;4.93;;;;;;;16.22;55.47;101539.72;7396294;19;20035;-68
2022/06/11 00:53:14;;;;;;;9.38;4.60;;;;;;;16.19;55.78;101536.31;7394416;19;20070;-69
2022/06/11 00:55:45;;;;;;;10.40;4.57;;;;;;;16.17;55.85;101532.88;7396059;19;20015;-68
2022/06/11 00:58:17;;;;;;;6.97;4.40;;;;;;;16.12;56.19;101536.53;7394502;19;20041;-68
2022/06/11 01:00:50;;;;;;;7.13;4.20;;;;;;;16.10;56.11;101532.22;7396015;19;20014;-68
2022/06/11 01:03:23;;;;;;;7.22;4.25;;;;;;;16.06;56.19;101534.09;7393388;19;20396;-68
2022/06/11 01:06:04;;;;;;;6.13;4.10;;;;;;;16.02;56.40;101531.56;7395244;19;20015;-66
2022/06/11 01:08:58;;;;;;;6.90;4.30;;;;;;;15.98;56.57;101527.31;7395085;19;20432;-65
2022/06/11 01:11:40;;;;;;;6.10;3.95;;;;;;;15.94;56.56;101523.88;7393228;19;20032;-66
2022/06/11 01:14:28;;;;;;;8.07;4.53;;;;;;;15.93;56.79;101524.78;7396424;19;20014;-65
2022/06/11 01:17:09;;;;;;;7.18;3.95;;;;;;;15.90;57.07;101512.53;7395605;19;20018;-71
2022/06/11 01:20:03;;;;;;;5.60;4.32;;;;;;;15.91;57.02;101513.38;7395772;19;20350;-67
2022/06/11 01:22:43;;;;;;;;;;;;;;;15.91;56.65;101510.72;7393531;19;20019;-68
2022/06/11 01:25:32;;;;;;;7.78;5.07;;;;;;;15.90;56.83;101509.03;7394713;19;19923;-68
2022/06/11 01:28:27;;;;;;;8.50;4.63;;;;;;;15.88;56.86;101511.69;7392734;19;20489;-68
2022/06/11 01:31:07;;;;;;;5.10;4.30;;;;;;;15.86;57.12;101512.66;7394555;19;20021;-68
2022/06/11 01:33:46;;;;;;;6.75;4.47;;;;;;;15.84;57.18;101514.50;7394372;19;20015;-68
2022/06/11 01:36:21;;;;;;;5.22;4.55;;;;;;;15.80;57.35;101508.41;7393020;19;20502;-68
2022/06/11 01:38:54;;;;;;;8.10;4.65;;;;;;;15.77;57.40;101509.38;7392500;19;20544;-68
2022/06/11 01:41:34;;;;;;;6.20;3.95;;;;;;;15.73;57.60;101510.41;7393044;19;20035;-68
2022/06/11 01:44:06;;;;;;;9.50;4.68;;;;;;;15.69;57.67;101514.03;7392245;19;20544;-68
2022/06/11 01:46:39;;;;;;;5.32;4.10;;;;;;;15.64;57.70;101513.31;7393158;19;20022;-68
2022/06/11 01:49:29;;;;;;;5.75;4.70;;;;;;;15.62;57.94;101518.66;7392969;19;20019;-68
2022/06/11 01:52:07;;;;;;;7.45;4.47;;;;;;;15.57;57.68;101515.28;7393444;19;20025;-68
2022/06/11 01:54:43;;;;;;;8.38;4.53;;;;;;;15.55;58.09;101521.53;7395307;19;20022;-68
2022/06/11 01:57:34;;;;;;;5.32;3.95;;;;;;;15.50;58.07;101521.66;7399462;19;20022;-68
2022/06/11 02:00:15;;;;;;;4.38;3.70;;;;;;;15.45;58.44;101523.56;7401969;19;20014;-68
2022/06/11 02:03:04;;;;;;;5.88;4.35;;;;;;;15.39;58.53;101519.34;7399582;19;20043;-68
2022/06/11 02:05:44;;;;;;;5.22;4.70;;;;;;;15.34;58.58;101517.75;7401523;19;20014;-68
2022/06/11 02:08:23;;;;;;;8.02;4.40;;;;;;;15.29;58.84;101518.75;7401652;19;20019;-68
2022/06/11 02:10:59;;;;;;;5.40;4.40;;;;;;;15.28;58.68;101516.16;7401528;19;20036;-68
2022/06/11 02:13:34;;;;;;;6.75;4.22;;;;;;;15.25;58.83;101511.81;7398406;19;20357;-67
2022/06/11 02:16:09;;;;;;;5.80;4.55;;;;;;;15.24;59.04;101519.78;7400753;19;20011;-68
2022/06/11 02:18:42;;;;;;;8.15;4.80;;;;;;;15.22;59.30;101526.91;7401054;19;20471;-67
2022/06/11 02:21:14;;;;;;;5.88;3.88;;;;;;;15.19;59.33;101516.41;7400341;19;20018;-67
2022/06/11 02:23:46;;;;;;;5.50;4.15;;;;;;;15.18;59.29;101522.59;7399340;19;20510;-67
2022/06/11 02:26:19;;;;;;;6.55;5.07;;;;;;;15.15;59.58;101523.53;7398538;19;20078;-68
2022/06/11 02:28:49;;;;;;;7.73;4.17;;;;;;;15.14;59.54;101521.84;7401094;19;20099;-67
2022/06/11 02:31:23;;;;;;;5.28;4.43;;;;;;;15.14;59.77;101527.13;7397670;19;20035;-67
2022/06/11 02:33:54;;;;;;;5.18;4.35;;;;;;;15.12;59.78;101521.00;7401179;19;20025;-68
2022/06/11 02:36:27;;;;;;;4.97;4.40;;;;;;;15.12;59.82;101521.00;7397368;19;20027;-68
2022/06/11 02:38:56;;;;;;;3.95;3.55;;;;;;;15.10;59.81;101521.06;7400350;19;20045;-68
2022/06/11 02:41:28;;;;;;;7.22;4.60;;;;;;;15.12;60.19;101523.66;7397182;19;20082;-67
2022/06/11 02:43:57;;;;;;;7.63;5.15;;;;;;;15.12;60.08;101526.28;7398890;19;20399;-68
2022/06/11 02:49:10;;;;;;;5.82;4.30;;;;;;;15.11;60.08;101517.50;7400205;19;20020;-68
2022/06/11 02:51:39;;;;;;;6.00;4.30;;;;;;;15.13;60.17;101526.25;7397851;19;20032;-67
2022/06/11 02:54:08;;;;;;;7.80;4.72;;;;;;;15.15;60.18;101526.19;7397390;19;20031;-67
2022/06/11 02:56:36;;;;;;;5.80;4.30;;;;;;;15.15;59.91;101527.06;7396982;19;20421;-68
2022/06/11 02:59:06;;;;;;;5.82;5.00;;;;;;;15.19;60.02;101532.25;7399638;19;20077;-67
2022/06/11 03:01:36;;;;;;;7.05;4.78;;;;;;;15.19;60.20;101527.84;7398729;19;20425;-67
2022/06/11 03:04:05;;;;;;;6.55;4.85;;;;;;;15.21;60.09;101536.59;7397054;19;20022;-68
2022/06/11 03:06:40;;;;;;;5.25;4.60;;;;;;;15.23;59.98;101528.63;7398572;19;20078;-67
2022/06/11 03:09:10;;;;;;;5.68;4.80;;;;;;;15.23;59.93;101539.22;7400088;19;20358;-68
2022/06/11 03:11:39;;;;;;;7.38;4.45;;;;;;;15.24;59.99;101533.00;7396986;19;20096;-68
2022/06/11 03:14:08;;;;;;;6.53;4.50;;;;;;;15.25;59.82;101532.97;7398977;19;20010;-68
2022/06/11 03:16:38;;;;;;;9.93;5.00;;;;;;;15.26;59.82;101536.47;7399001;19;20011;-68
2022/06/11 03:19:07;;;;;;;5.88;4.95;;;;;;;15.27;60.01;101540.84;7398950;19;20035;-67
2022/06/11 03:21:39;;;;;;;7.55;5.18;;;;;;;15.27;59.75;101536.41;7396644;19;20086;-67
2022/06/11 03:24:09;;;;;;;6.05;4.68;;;;;;;15.29;59.66;101539.00;7397375;19;20018;-68
2022/06/11 03:26:37;;;;;;;6.22;4.32;;;;;;;15.28;59.39;101545.22;7396423;19;20022;-67
2022/06/11 03:29:08;;;;;;;8.88;5.20;;;;;;;15.27;59.81;101546.13;7395961;19;20074;-68
2022/06/11 03:31:36;;;;;;;6.30;4.80;;;;;;;15.28;59.53;101543.44;7398411;19;20048;-68
2022/06/11 03:34:05;;;;;;;5.75;5.13;;;;;;;15.28;59.55;101558.44;7396326;19;20094;-68
2022/06/11 03:36:34;;;;;;;9.18;4.80;;;;;;;15.29;59.58;101547.81;7396228;19;20421;-67
2022/06/11 03:39:06;;;;;;;6.18;4.55;;;;;;;15.30;59.67;101556.59;7396181;19;20082;-68
2022/06/11 03:41:35;;;;;;;8.52;4.68;;;;;;;15.30;59.26;101551.31;7396358;19;20074;-68
2022/06/11 03:44:04;;;;;;;8.43;5.22;;;;;;;15.31;59.65;101555.72;7397163;19;20022;-66
2022/06/11 03:46:32;;;;;;;6.82;4.80;;;;;;;15.31;59.58;101559.19;7395811;19;20018;-68
2022/06/11 03:49:01;;;;;;;5.13;4.63;;;;;;;15.30;59.46;101557.50;7395992;19;20446;-67
2022/06/11 03:51:29;;;;;;;6.10;4.43;;;;;;;15.31;59.46;101558.34;7397235;19;20026;-68
2022/06/11 03:53:58;;;;;;;5.97;5.40;;;;;;;15.31;59.54;101559.19;7397841;19;20082;-68
2022/06/11 03:56:29;;;;;;;6.05;4.97;;;;;;;15.31;59.50;101563.63;7397808;19;20106;-68
2022/06/11 03:58:58;;;;;;;8.65;5.03;;;;;;;15.30;59.46;101564.53;7396410;19;20019;-68
2022/06/11 04:01:28;;;;;;;7.05;4.38;;;;;;;15.31;59.59;101572.41;7397306;19;20035;-68
2022/06/11 04:04:02;;;;;;;6.25;5.10;;;;;;;15.33;59.62;101567.13;7397354;19;20014;-68
2022/06/11 04:06:34;;;;;;;5.75;4.55;;;;;;;15.35;59.51;101569.72;7397980;19;20030;-68
2022/06/11 04:09:03;;;;;;;6.38;4.88;;;;;;;15.36;59.69;101572.31;7397816;19;20014;-68
2022/06/11 04:11:34;;;;;;;7.45;5.15;;;;;;;15.37;59.62;101574.03;7396949;19;20023;-68
2022/06/11 04:14:03;;;;;;;8.15;5.13;;;;;;;15.38;59.59;101575.78;7396713;19;20431;-68
2022/06/11 04:16:36;;;;;;;5.68;5.18;;;;;;;15.40;59.74;101576.59;7396558;19;20380;-68
2022/06/11 04:19:08;;;;;;;5.70;4.82;;;;;;;15.36;59.67;101561.72;7395348;19;20090;-68
2022/06/11 04:21:38;;;;;;;6.82;4.70;;;;;;;15.41;59.57;101575.69;7395269;19;20014;-68
2022/06/11 04:24:09;;;;;;;7.90;5.15;;;;;;;15.42;59.51;101572.13;7395566;19;20078;-68
2022/06/11 04:26:43;;;;;;;7.03;4.68;;;;;;;15.44;59.53;101565.03;7396798;19;20015;-68
2022/06/11 04:29:15;;;;;;;9.13;5.57;;;;;;;15.48;59.55;101571.09;7397170;19;20019;-69
2022/06/11 04:31:43;;;;;;;6.78;5.40;;;;;;;15.52;59.77;101577.13;7396525;19;20385;-68
2022/06/11 04:34:12;;;;;;;8.63;4.90;;;;;;;15.55;59.59;101577.06;7396293;19;20027;-68
2022/06/11 04:36:42;;;;;;;6.63;5.07;;;;;;;15.57;59.75;101575.22;7394265;19;20027;-67
2022/06/11 04:39:12;;;;;;;6.63;4.45;;;;;;;15.57;59.45;101568.19;7394833;19;20081;-68
2022/06/11 04:41:44;;;;;;;6.18;5.15;;;;;;;15.61;59.81;101571.59;7395559;19;20018;-68
2022/06/11 04:44:13;;;;;;;5.95;4.68;;;;;;;15.62;59.40;101568.06;7396218;19;20086;-68
2022/06/11 04:46:41;;;;;;;8.32;4.90;;;;;;;15.65;59.51;101570.59;7393934;19;20484;-68
2022/06/11 04:49:11;;;;;;;5.22;4.72;;;;;;;15.68;59.59;101574.91;7395803;19;20481;-67
2022/06/11 04:51:46;;;;;;;7.72;5.60;;;;;;;15.71;59.28;101573.06;7395448;19;20019;-68
2022/06/11 04:54:15;;;;;;;5.75;5.25;;;;;;;15.75;59.44;101569.41;7396480;19;20014;-68
2022/06/11 04:56:46;;;;;;;6.32;5.13;;;;;;;15.79;59.68;101573.66;7395393;19;20018;-69
2022/06/11 04:59:15;;;;;;;5.53;4.82;;;;;;;15.85;59.49;101569.16;7394490;19;20031;-68
2022/06/11 05:01:45;;;;;;;9.27;5.53;;;;;;;15.91;59.60;101571.59;7394859;19;20019;-68
2022/06/11 05:04:15;;;;;;;5.97;5.45;;;;;;;15.98;59.60;101570.50;7394335;19;20014;-68
2022/06/11 05:06:48;;;;;;;6.05;5.45;;;;;;;16.05;59.69;101573.81;7393658;19;20015;-68
2022/06/11 05:09:19;;;;;;;7.97;6.13;;;;;;;16.12;59.38;101570.06;7394270;19;20022;-68
2022/06/11 05:11:52;;;;;;;6.80;6.10;;;;;;;16.21;59.17;101576.84;7394641;19;20497;-68
2022/06/11 05:14:21;;;;;;;6.20;5.60;;;;;;;16.28;59.38;101573.94;7394904;19;20018;-68
2022/06/11 05:16:50;;;;;;;7.07;5.57;;;;;;;16.36;58.95;101576.34;7395338;19;20022;-66
2022/06/11 05:19:22;;;;;;;6.88;6.22;;;;;;;16.46;59.12;101579.56;7394209;19;20027;-68
2022/06/11 05:21:52;;;;;;;8.45;7.55;;;;;;;16.56;58.83;101582.78;7393036;19;20023;-68
2022/06/11 05:24:22;;;;;;;6.72;5.78;;;;;;;16.64;58.67;101577.22;7393524;19;20510;-68
2022/06/11 05:26:57;;;;;;;7.55;5.97;;;;;;;16.73;58.30;101572.47;7394278;19;20423;-67
2022/06/11 05:29:28;;;;;;;7.88;7.00;;;;;;;16.84;58.26;101579.19;7399079;19;20031;-66
2022/06/11 05:31:58;;;;;;;8.30;6.45;;;;;;;16.93;58.11;101571.81;7401293;19;20022;-65
2022/06/11 05:34:27;;;;;;;7.95;6.78;;;;;;;17.03;58.18;101577.63;7398743;19;20018;-66
2022/06/11 05:36:56;;;;;;;9.23;6.97;;;;;;;17.10;57.72;101578.31;7398260;19;20019;-66
2022/06/11 05:39:25;;;;;;;9.10;6.38;;;;;;;17.20;57.96;101582.34;7401545;19;20015;-66
2022/06/11 05:41:56;;;;;;;11.50;7.50;;;;;;;17.31;57.58;101575.78;7400159;19;20100;-67
2022/06/11 05:44:25;;;;;;;9.95;7.32;;;;;;;17.36;57.58;101573.81;7400110;19;20014;-66
2022/06/11 05:46:55;;;;;;;8.23;6.68;;;;;;;17.51;57.37;101575.91;7397688;19;20017;-67
2022/06/11 05:49:28;;;;;;;9.70;6.82;;;;;;;17.62;57.10;101580.81;7400754;19;20495;-67
2022/06/11 05:52:01;;;;;;;8.18;6.40;;;;;;;17.73;57.48;101578.63;7400060;19;20027;-66
2022/06/11 05:54:35;;;;;;;10.02;6.68;;;;;;;17.84;57.02;101579.97;7400326;19;20025;-66
2022/06/11 05:57:11;;;;;;;8.57;5.78;;;;;;;17.94;56.83;101580.53;7397789;19;20519;-65
2022/06/11 05:59:45;;;;;;;8.85;6.45;;;;;;;18.04;56.77;101579.22;7398417;19;20023;-67
2022/06/11 06:02:16;;;;;;;10.70;5.95;;;;;;;18.14;56.68;101583.25;7399808;19;20029;-67
2022/06/11 06:04:45;;;;;;;10.38;6.13;;;;;;;18.24;56.92;101578.44;7399559;19;20014;-66
2022/06/11 06:07:13;;;;;;;10.88;6.40;;;;;;;18.34;56.39;101579.78;7400439;19;20014;-67
2022/06/11 06:09:42;;;;;;;7.90;5.35;;;;;;;18.45;56.22;101582.00;7399811;19;20014;-67
2022/06/11 06:12:13;;;;;;;13.95;5.30;;;;;;;18.56;56.14;101581.53;7399053;19;20027;-67
2022/06/11 06:14:42;;;;;;;8.13;5.30;;;;;;;18.62;56.22;101572.47;7397782;19;20019;-67
2022/06/11 06:17:10;;;;;;;9.95;5.05;;;;;;;18.76;55.83;101578.03;7397964;19;20018;-67
2022/06/11 06:19:39;;;;;;;5.53;4.25;;;;;;;18.87;55.85;101577.59;7400604;19;20025;-67
2022/06/11 06:22:07;;;;;;;9.25;4.90;;;;;;;18.96;55.42;101582.53;7398703;19;20503;-67
2022/06/11 06:24:36;;;;;;;6.53;4.43;;;;;;;19.09;55.41;101582.00;7399080;19;20018;-67
2022/06/11 06:27:05;;;;;;;5.18;3.83;;;;;;;19.18;55.60;101584.22;7399964;19;20074;-67
2022/06/11 06:29:37;;;;;;;8.63;4.53;;;;;;;19.29;55.42;101576.63;7399489;19;20015;-67
2022/06/11 06:32:06;;;;;;;5.68;4.13;;;;;;;19.40;55.28;101577.94;7398082;19;20027;-67
2022/06/11 06:34:34;;;;;;;14.43;4.72;;;;;;;19.51;55.20;101581.84;7399162;19;20082;-68
2022/06/11 06:37:03;;;;;;;6.65;4.68;;;;;;;19.61;54.79;101584.94;7396709;19;20064;-67
2022/06/11 06:39:32;;;;;;;7.80;4.03;;;;;;;19.72;54.79;101578.25;7399561;19;20011;-67
2022/06/11 06:42:00;;;;;;;9.38;4.68;;;;;;;19.84;54.56;101577.69;7395704;19;20083;-67
2022/06/11 06:44:29;;;;;;;6.40;4.43;;;;;;;19.93;54.40;101577.28;7397632;19;20015;-67
2022/06/11 06:47:01;;;;;;;7.28;4.10;;;;;;;20.05;54.34;101580.28;7399679;19;20404;-67
2022/06/11 06:49:29;;;;;;;7.80;4.18;;;;;;;20.17;54.34;101585.03;7400366;19;20021;-65
2022/06/11 06:51:58;;;;;;;4.28;3.67;;;;;;;20.27;54.12;101583.63;7398046;19;20018;-67
2022/06/11 06:54:26;;;;;;;5.43;3.88;;;;;;;20.38;54.09;101580.41;7398829;19;20452;-66
2022/06/11 06:56:55;;;;;;;7.53;3.88;;;;;;;20.50;53.52;101578.94;7399548;19;20018;-70
2022/06/11 06:59:23;;;;;;;5.90;3.50;;;;;;;20.62;53.31;101577.44;7397083;19;20035;-68
2022/06/11 07:01:52;;;;;;;6.28;3.53;;;;;;;20.72;53.29;101567.22;7396993;19;20095;-67
2022/06/11 07:04:23;;;;;;;6.28;3.78;;;;;;;20.83;52.69;101571.03;7398867;19;20015;-68
2022/06/11 07:06:51;;;;;;;9.32;4.10;;;;;;;20.95;52.43;101564.22;7399552;19;20066;-67
2022/06/11 07:09:20;;;;;;;8.82;4.38;;;;;;;21.09;52.48;101570.63;7396756;19;20086;-67
2022/06/11 07:11:48;;;;;;;5.40;3.83;;;;;;;21.23;51.95;101569.88;7396031;19;20022;-67
2022/06/11 07:14:17;;;;;;;9.18;4.10;;;;;;;21.35;51.92;101565.72;7398315;19;20031;-68
2022/06/11 07:16:50;;;;;;;4.43;3.10;;;;;;;21.46;51.14;101563.31;7398184;19;20442;-67
2022/06/11 07:19:27;;;;;;;6.30;2.90;;;;;;;21.57;50.66;101560.06;7398181;19;20485;-67
2022/06/11 07:22:03;;;;;;;5.38;3.13;;;;;;;21.68;49.48;101559.50;7397925;19;20078;-67
2022/06/11 07:24:35;;;;;;;5.50;3.10;;;;;;;21.79;49.60;101555.25;7398278;19;20023;-66
2022/06/11 07:27:07;;;;;;;4.32;2.38;;;;;;;21.87;49.40;101552.16;7398726;19;20134;-66
2022/06/11 07:29:40;;;;;;;4.53;2.75;;;;;;;21.94;48.88;101556.19;7397762;19;20022;-69
2022/06/11 07:32:10;;;;;;;;;;;;;;;22.03;48.23;101559.31;7398039;19;20019;-70
2022/06/11 07:34:42;;;;;;;5.38;2.80;;;;;;;22.09;48.77;101550.91;7395402;19;19974;-69
2022/06/11 07:37:12;;;;;;;8.55;2.90;;;;;;;22.16;48.61;101552.28;7395634;19;20018;-70
2022/06/11 07:39:40;;;;;;;5.93;2.53;;;;;;;22.24;48.28;101543.81;7395389;19;20087;-70
2022/06/11 07:42:10;;;;;;;3.47;1.85;;;;;;;22.31;47.64;101547.03;7394674;19;20078;-70
2022/06/11 07:44:39;;;;;;;4.88;1.92;;;;;;;22.36;46.49;101547.59;7396481;19;20015;-70
2022/06/11 07:47:08;;;;;;;7.38;1.65;;;;;;;22.41;45.60;101548.22;7394625;19;20397;-71
2022/06/11 07:49:37;;;;;;;6.50;1.90;;;;;;;22.47;45.11;101544.31;7396983;19;20081;-71
2022/06/11 07:52:08;;;;;;;5.35;1.73;;;;;;;22.51;44.47;101546.72;7396163;19;20027;-70
2022/06/11 07:54:37;;;;;;;5.22;1.85;;;;;;;22.57;44.38;101546.38;7395197;19;20028;-70
2022/06/11 07:57:06;;;;;;;5.20;1.35;;;;;;;22.61;43.96;101542.53;7397185;19;20022;-70
2022/06/11 07:59:41;;;;;;;5.07;1.27;;;;;;;22.65;44.01;101539.69;7397692;19;20545;-70
2022/06/11 08:02:09;;;;;;;4.07;1.50;;;;;;;22.68;43.93;101539.50;7396411;19;20019;-70
2022/06/11 08:04:38;;;;;;;4.32;1.50;;;;;;;22.69;44.02;101539.41;7397457;19;20027;-71
2022/06/11 08:07:09;;;;;;;5.43;2.13;;;;;;;22.72;43.20;101539.25;7395545;19;20014;-71
2022/06/11 08:09:38;;;;;;;3.33;1.42;;;;;;;22.78;43.67;101532.63;7394644;19;20015;-71
2022/06/11 08:12:08;;;;;;;7.07;1.90;;;;;;;22.83;43.50;101543.06;7395448;19;20379;-70
2022/06/11 08:14:36;;;;;;;3.80;1.27;;;;;;;22.87;43.46;101541.91;7395930;19;20023;-70
2022/06/11 08:17:05;;;;;;;5.07;1.40;;;;;;;22.91;43.63;101532.75;7395546;19;20010;-71
2022/06/11 08:19:34;;;;;;;6.10;1.50;;;;;;;22.97;43.11;101534.19;7396235;19;20031;-70
2022/06/11 08:22:02;;;;;;;5.20;1.73;;;;;;;23.04;42.60;101539.06;7394515;19;20035;-70
2022/06/11 08:24:33;;;;;;;4.78;1.77;;;;;;;23.12;42.46;101538.59;7395356;19;20545;-71
2022/06/11 08:27:02;;;;;;;3.30;0.82;;;;;;;23.18;42.04;101540.91;7393540;19;20014;-70
2022/06/11 08:29:30;;;;;;;3.03;1.20;;;;;;;23.24;42.42;101540.53;7395359;19;20014;-71
2022/06/11 08:31:59;;;;;;;3.92;1.33;;;;;;;23.25;42.32;101536.91;7394639;19;20111;-71
2022/06/11 08:34:27;;;;;;;6.95;1.60;;;;;;;23.37;42.41;101540.63;7394041;19;20022;-70
2022/06/11 08:36:56;;;;;;;3.85;1.45;;;;;;;23.42;41.95;101532.31;7393106;19;20097;-71
2022/06/11 08:39:24;;;;;;;4.72;1.27;;;;;;;23.46;41.64;101523.09;7395068;19;20505;-71
2022/06/11 08:41:58;;;;;;;3.85;1.40;;;;;;;23.54;41.33;101538.69;7394508;19;20018;-72
2022/06/11 08:44:27;;;;;;;5.55;1.85;;;;;;;23.59;41.43;101536.56;7395780;19;20015;-71
2022/06/11 08:47:02;;;;;;;3.97;1.40;;;;;;;23.64;41.52;101531.75;7393866;19;20031;-71
2022/06/11 08:49:37;;;;;;;5.07;1.27;;;;;;;23.69;40.74;101535.00;7396963;19;20019;-71
2022/06/11 08:52:13;;;;;;;4.18;1.30;;;;;;;23.75;41.19;101534.59;7394870;19;20027;-71
2022/06/11 08:54:45;;;;;;;2.13;1.00;;;;;;;23.83;41.21;101519.84;7393632;19;20027;-71
2022/06/11 08:57:25;;;;;;;2.42;1.10;;;;;;;23.92;40.36;101530.00;7395408;19;20018;-71
2022/06/11 09:00:05;;;;;;;3.20;0.90;;;;;;;24.04;40.59;101526.50;7395000;19;20027;-71
2022/06/11 09:02:53;;;;;;;5.93;1.27;;;;;;;24.16;39.66;101519.47;7393278;19;20014;-70
2022/06/11 09:05:42;;;;;;;1.77;0.98;;;;;;;24.28;39.67;101519.63;7392877;19;20010;-70
2022/06/11 09:08:28;;;;;;;2.67;1.08;;;;;;;24.37;39.06;101529.72;7394494;19;20513;-71
2022/06/11 09:11:10;;;;;;;2.45;1.00;;;;;;;24.47;38.00;101524.59;7395408;19;20070;-70
2022/06/11 09:14:03;;;;;;;2.13;1.00;;;;;;;24.51;37.52;101510.84;7394300;19;20031;-71
2022/06/11 09:16:48;;;;;;;2.50;1.30;;;;;;;24.58;37.89;101511.28;7395340;19;20015;-71
2022/06/11 09:19:33;;;;;;;2.53;0.82;;;;;;;24.63;36.90;101508.28;7394565;19;20023;-71
2022/06/11 09:22:17;;;;;;;3.78;0.60;;;;;;;24.66;36.68;101510.78;7393995;19;20023;-70
2022/06/11 09:25:11;;;;;;;2.05;0.80;;;;;;;24.73;35.56;101514.75;7394681;19;20344;-71
2022/06/11 09:27:42;;;;;;;2.15;0.70;;;;;;;24.81;36.68;101508.88;7394562;19;20022;-71
2022/06/11 09:30:18;;;;;;;1.38;0.60;;;;;;;24.88;35.71;101507.44;7393238;19;20035;-71
2022/06/11 09:32:52;;;;;;;4.15;0.90;;;;;;;24.97;36.18;101503.25;7390804;19;20018;-70
2022/06/11 09:35:24;;;;;;;2.47;0.80;;;;;;;25.09;34.34;101510.44;7393839;19;20422;-71
2022/06/11 09:38:08;;;;;;;2.80;0.73;;;;;;;25.18;33.87;101504.41;7392455;19;20457;-71
2022/06/11 09:40:42;;;;;;;4.60;1.17;;;;;;;25.27;33.47;101502.88;7393868;19;20018;-71
2022/06/11 09:43:29;;;;;;;2.10;0.70;;;;;;;25.32;32.26;101510.63;7393158;19;20418;-71
2022/06/11 09:46:10;;;;;;;4.05;0.85;;;;;;;25.42;33.45;101497.41;7393541;19;20018;-71
2022/06/11 09:48:53;;;;;;;1.10;0.52;;;;;;;25.56;33.60;101496.41;7394089;19;20135;-71
2022/06/11 09:51:29;;;;;;;2.70;0.60;;;;;;;25.73;32.91;101503.22;7394348;19;20082;-69
2022/06/11 09:54:16;;;;;;;2.58;0.80;;;;;;;25.89;32.78;101497.56;7393701;19;20488;-70
2022/06/11 09:56:52;;;;;;;2.42;0.60;;;;;;;26.01;31.38;101496.63;7394617;19;20026;-70
2022/06/11 09:59:30;;;;;;;3.60;0.70;;;;;;;26.13;32.03;101492.19;7393703;19;20484;-70
2022/06/11 10:02:16;;;;;;;2.35;0.80;;;;;;;26.21;30.64;101491.59;7393501;19;20027;-70
2022/06/11 10:04:47;;;;;;;1.33;0.50;;;;;;;26.27;31.19;101505.41;7394416;19;20024;-70
2022/06/11 10:07:24;;;;;;;1.58;0.60;;;;;;;26.26;30.94;101502.84;7392129;19;20015;-70
2022/06/11 10:09:59;;;;;;;2.45;0.70;;;;;;;26.24;31.22;101507.50;7392018;19;20044;-70
2022/06/11 10:12:33;;;;;;;1.48;0.70;;;;;;;26.21;29.71;101503.22;7391814;19;20477;-70
2022/06/11 10:15:07;;;;;;;3.95;0.80;;;;;;;26.23;30.53;101498.56;7393596;19;20037;-70
2022/06/11 10:17:46;;;;;;;3.15;0.63;;;;;;;26.21;30.34;101502.34;7398274;19;20026;-71
2022/06/11 10:20:21;;;;;;;2.90;0.90;;;;;;;26.23;31.14;101505.78;7401034;19;20014;-71
2022/06/11 10:22:55;;;;;;;4.13;1.08;;;;;;;26.26;31.25;101510.91;7397006;19;20032;-69
2022/06/11 10:25:32;;;;;;;2.58;0.70;;;;;;;26.28;30.87;101503.59;7399554;19;20480;-71
2022/06/11 10:28:07;;;;;;;4.25;0.60;;;;;;;26.33;30.84;101498.72;7399889;19;20378;-70
2022/06/11 10:30:46;;;;;;;3.03;0.88;;;;;;;26.37;31.19;101491.28;7399796;19;20018;-71
2022/06/11 10:33:27;;;;;;;3.53;0.75;;;;;;;26.34;31.34;101498.59;7397155;19;20018;-75
2022/06/11 10:36:04;;;;;;;0.82;0.60;;;;;;;26.34;30.68;101503.13;7398795;19;20060;-70
2022/06/11 10:38:43;;;;;;;0.98;0.60;;;;;;;26.38;30.58;101514.53;7396733;19;20018;-71
2022/06/11 10:41:19;;;;;;;9.30;0.70;;;;;;;26.39;30.42;101502.75;7400557;19;20018;-69
2022/06/11 10:43:54;;;;;;;1.08;0.57;;;;;;;26.40;30.09;101509.88;7399938;19;20032;-70
2022/06/11 10:46:22;;;;;;;0.70;0.47;;;;;;;26.41;30.47;101511.59;7398331;19;20014;-70
2022/06/11 10:49:00;;;;;;;2.50;1.10;;;;;;;26.44;30.57;101498.75;7397535;19;20078;-70
2022/06/11 10:51:34;;;;;;;1.38;0.80;;;;;;;26.50;31.38;101500.97;7399149;19;20018;-70
2022/06/11 10:54:12;;;;;;;1.65;0.88;;;;;;;26.56;30.78;101501.47;7399955;19;20014;-69
2022/06/11 10:56:47;;;;;;;3.55;0.90;;;;;;;26.61;31.39;101497.44;7399975;19;20019;-70
2022/06/11 10:59:23;;;;;;;2.58;0.88;;;;;;;26.65;30.85;101495.38;7399271;19;20493;-70
2022/06/11 11:01:58;;;;;;;3.35;0.82;;;;;;;26.68;30.52;101492.44;7399160;19;20035;-71
2022/06/11 11:04:42;;;;;;;2.28;0.80;;;;;;;26.62;30.93;101506.38;7399865;19;20015;-70
2022/06/11 11:07:18;;;;;;;2.58;0.90;;;;;;;26.55;31.08;101499.75;7396441;19;20074;-70
2022/06/11 11:09:47;;;;;;;2.60;0.70;;;;;;;26.57;31.23;101492.44;7399613;19;20056;-71
2022/06/11 11:12:26;;;;;;;2.72;0.73;;;;;;;26.60;31.56;101497.56;7398318;19;20022;-70
2022/06/11 11:15:02;;;;;;;2.42;0.85;;;;;;;26.69;31.20;101501.38;7398657;19;20085;-71
2022/06/11 11:17:34;;;;;;;2.88;0.80;;;;;;;26.76;31.43;101497.25;7399189;19;20024;-71
2022/06/11 11:20:35;;;;;;;1.80;0.80;;;;;;;26.86;31.16;101492.84;7396573;19;20010;-70
2022/06/11 11:23:18;;;;;;;2.60;0.88;;;;;;;26.99;31.19;101492.72;7395703;19;20087;-70
2022/06/11 11:25:50;;;;;;;3.65;0.85;;;;;;;27.11;31.01;101497.13;7397723;19;20493;-71
2022/06/11 11:28:23;;;;;;;2.40;0.73;;;;;;;27.19;30.97;101493.81;7394575;19;20493;-70
2022/06/11 11:31:01;;;;;;;3.35;0.70;;;;;;;27.24;30.35;101493.47;7395619;19;20027;-70
2022/06/11 11:33:33;;;;;;;1.38;0.80;;;;;;;27.29;30.48;101485.84;7395369;19;20031;-70
2022/06/11 11:36:14;;;;;;;2.25;0.70;;;;;;;27.34;30.24;101494.41;7397198;19;20083;-71
2022/06/11 11:38:43;;;;;;;3.42;0.90;;;;;;;27.45;30.49;101493.59;7395739;19;20107;-70
2022/06/11 11:41:26;;;;;;;1.33;0.50;;;;;;;27.51;29.46;101481.44;7397125;19;20027;-70
2022/06/11 11:43:59;;;;;;;2.17;0.88;;;;;;;27.53;29.77;101487.56;7398294;19;20019;-70
2022/06/11 11:46:34;;;;;;;2.00;0.80;;;;;;;27.52;29.71;101478.59;7396573;19;20029;-70
2022/06/11 11:49:06;;;;;;;3.42;0.93;;;;;;;27.52;29.93;101483.16;7394327;19;20485;-70
2022/06/11 11:51:41;;;;;;;4.03;0.80;;;;;;;27.48;29.53;101478.00;7394488;19;20480;-70
2022/06/11 11:54:17;;;;;;;2.65;0.55;;;;;;;27.46;29.22;101473.72;7395734;19;20035;-70